Stephen M. White — WCU6542 — position and weather

sailwx.info

Track history (hours):
 
Tides and Currents Weather Stations Pressure Air Temp Water Temp Dewpoint Dewpoint Depression Visibility Wind Speed Wind Dir Waves Ship Positions

Stephen M. White

Owner: LOS ANGELES, CITY OF, SAN PEDRO, CA. More information available from US FCC via Universal Licensing System and Coast Guard Vessel Documentation Center.

Last reported at 2014-Oct-02 16:33 UTC. Time now 2014-Oct-02 16:43 UTC.
Position N 33°43' W 118°16'.

Length 20 m.

Type: Pilot. MMSI: 367049470.

Date/timePositionNaut miles runAvg speedWind from/ knotsBaromVisibWave heightAir tempDewpointWater temp
2014-Oct-02 16:33N 33°43' W 118°16'0 0.0
2014-Oct-02 15:33N 33°43' W 118°16'0 0.0
2014-Oct-02 14:33N 33°43' W 118°16'0 0.0
2014-Oct-02 13:33N 33°43' W 118°16'0 0.0
2014-Oct-02 12:33N 33°43' W 118°16'2 1.8
2014-Oct-02 11:33N 33°42' W 118°15'2 1.8
2014-Oct-02 10:33N 33°43' W 118°16'0 0.0
2014-Oct-02 09:33N 33°43' W 118°16'0 0.0
2014-Oct-02 08:31N 33°43' W 118°16'0 0.0
2014-Oct-02 07:33N 33°43' W 118°16'0 0.0
2014-Oct-02 06:33N 33°43' W 118°16'0 0.1
2014-Oct-02 05:33N 33°43' W 118°16'0 0.1
2014-Oct-02 04:33N 33°43' W 118°16'0 0.1
2014-Oct-02 03:33N 33°43' W 118°16'0 0.0
2014-Oct-02 02:33N 33°43' W 118°16'0 0.0
2014-Oct-02 01:33N 33°43' W 118°16'0 0.0
2014-Oct-02 00:33N 33°43' W 118°16'0 0.0
2014-Oct-01 23:33N 33°43' W 118°16'0 0.0
2014-Oct-01 22:33N 33°43' W 118°16'0 0.0
2014-Oct-01 21:33N 33°43' W 118°16'0 0.0
2014-Oct-01 20:33N 33°43' W 118°16'0 0.0
2014-Oct-01 19:33N 33°43' W 118°16'0 0.0
2014-Oct-01 16:12N 33°43' W 118°16'0 0.0
2014-Oct-01 15:33N 33°43' W 118°16'0 0.0
2014-Oct-01 14:32N 33°43' W 118°16'2 1.3
2014-Oct-01 13:20N 33°42' W 118°15'2 1.9
2014-Oct-01 12:32N 33°43' W 118°16'0 0.0
2014-Oct-01 11:33N 33°43' W 118°16'0 0.0
2014-Oct-01 10:33N 33°43' W 118°16'0 0.0
2014-Oct-01 09:33N 33°43' W 118°16'0 0.0
2014-Oct-01 08:33N 33°43' W 118°16'0 0.0
2014-Oct-01 07:33N 33°43' W 118°16'0 0.0
2014-Oct-01 06:33N 33°43' W 118°16'0 0.0
2014-Oct-01 05:32N 33°43' W 118°16'0 0.0
2014-Oct-01 04:33N 33°43' W 118°16'0 0.0
2014-Oct-01 03:33N 33°43' W 118°16'1 1.3
2014-Oct-01 02:33N 33°43' W 118°15'1 1.3
2014-Oct-01 01:33N 33°43' W 118°16'0 0.0
2014-Oct-01 00:25N 33°43' W 118°16'5 6.3
2014-Sep-30 23:34N 33°38' W 118°14'5 5.4
2014-Sep-30 22:33N 33°43' W 118°16'0 0.0
2014-Sep-30 21:34N 33°43' W 118°16'0 0.0
2014-Sep-30 20:33N 33°43' W 118°16'0 0.0
2014-Sep-30 19:33N 33°43' W 118°16'0 0.0
2014-Sep-30 18:33N 33°43' W 118°16'0 0.0
2014-Sep-30 17:12N 33°43' W 118°16'0 0.0
2014-Sep-30 16:14N 33°43' W 118°16'0 0.0
2014-Sep-30 14:34N 33°43' W 118°16'0 0.0
2014-Sep-30 13:33N 33°43' W 118°16'0 0.0
2014-Sep-30 12:33N 33°43' W 118°16'0 0.0
2014-Sep-30 11:33N 33°43' W 118°16'0 0.0
2014-Sep-30 10:33N 33°43' W 118°16'0 0.0
2014-Sep-30 09:32N 33°43' W 118°16'0 0.0
2014-Sep-30 08:33N 33°43' W 118°16'0 0.0
2014-Sep-30 07:33N 33°43' W 118°16'0 0.0
2014-Sep-30 06:31N 33°43' W 118°16'0 0.0
2014-Sep-30 05:32N 33°43' W 118°16'0 0.0
2014-Sep-30 04:33N 33°43' W 118°16'0 0.0
2014-Sep-30 03:33N 33°43' W 118°16'0 0.0
2014-Sep-30 02:24N 33°43' W 118°16'0 0.0
2014-Sep-30 01:34N 33°43' W 118°16'0 0.0
2014-Sep-30 00:32N 33°43' W 118°16'0 0.0
2014-Sep-29 23:31N 33°43' W 118°16'0 0.0
2014-Sep-29 22:34N 33°43' W 118°16'1 0.1
2014-Sep-29 12:33N 33°42' W 118°15'0 0.0
2014-Sep-28 13:18N 33°43' W 118°15'1 0.2
2014-Sep-28 10:14N 33°42' W 118°14'2 2.7
2014-Sep-28 09:33N 33°44' W 118°16'1 0.2
2014-Sep-28 03:30N 33°43' W 118°15'1 0.4
2014-Sep-28 01:20N 33°43' W 118°16'0 0.3
2014-Sep-28 00:07N 33°43' W 118°16'0 0.5
2014-Sep-27 23:09N 33°43' W 118°16'0 0.2
2014-Sep-27 22:24N 33°43' W 118°16'0 0.1
2014-Sep-27 17:11N 33°43' W 118°16'0 0.0
2014-Sep-27 01:22N 33°43' W 118°15'1 0.9
2014-Sep-27 00:25N 33°43' W 118°16'0 0.0
2014-Sep-26 23:15N 33°43' W 118°16'0 0.0
2014-Sep-26 22:06N 33°43' W 118°16'1 1.6
2014-Sep-26 21:30N 33°43' W 118°15'1 1.0
2014-Sep-26 20:32N 33°43' W 118°16'0 0.0
2014-Sep-26 19:33N 33°43' W 118°16'0 0.0
2014-Sep-26 18:32N 33°43' W 118°16'0 0.0
2014-Sep-26 16:33N 33°43' W 118°16'3 3.4
2014-Sep-26 15:33N 33°40' W 118°14'3 3.4
2014-Sep-26 14:33N 33°43' W 118°16'0 0.0
2014-Sep-26 12:13N 33°43' W 118°16'0 0.0
2014-Sep-26 11:18N 33°43' W 118°16'0 0.0
2014-Sep-26 10:32N 33°43' W 118°16'0 0.0
2014-Sep-26 09:33N 33°43' W 118°16'0 0.0
2014-Sep-26 08:33N 33°43' W 118°16'0 0.0
2014-Sep-26 07:33N 33°43' W 118°16'0 0.0
2014-Sep-26 06:33N 33°43' W 118°16'0 0.0
2014-Sep-26 05:33N 33°43' W 118°16'2 1.6
2014-Sep-26 04:32N 33°42' W 118°15'2 1.7
2014-Sep-26 03:33N 33°43' W 118°16'0 0.0
2014-Sep-26 02:33N 33°43' W 118°16'0 0.0
2014-Sep-26 01:33N 33°43' W 118°16'1 1.5
2014-Sep-26 00:34N 33°42' W 118°15'1 1.5
2014-Sep-25 23:33N 33°43' W 118°16'1 1.2
2014-Sep-25 22:33N 33°43' W 118°15'1 1.2
2014-Sep-25 21:33N 33°43' W 118°16'0 0.0
2014-Sep-25 20:33N 33°43' W 118°16'1 1.2
2014-Sep-25 19:33N 33°43' W 118°15'1 1.2
2014-Sep-25 18:33N 33°43' W 118°16'0 0.0
2014-Sep-25 17:34N 33°43' W 118°16'0 0.0
2014-Sep-25 16:34N 33°43' W 118°16'0 0.0
2014-Sep-25 15:34N 33°43' W 118°16'0 0.0
2014-Sep-25 14:34N 33°43' W 118°16'0 0.0
2014-Sep-25 13:34N 33°43' W 118°16'0 0.0
2014-Sep-25 12:34N 33°43' W 118°16'3 2.9
2014-Sep-25 11:33N 33°41' W 118°15'3 2.9
2014-Sep-25 10:33N 33°43' W 118°16'0 0.0
2014-Sep-25 09:34N 33°43' W 118°16'1 1.0
2014-Sep-25 08:34N 33°43' W 118°15'1 1.0
2014-Sep-25 07:33N 33°43' W 118°16'0 0.0
2014-Sep-25 06:33N 33°43' W 118°16'0 0.0
2014-Sep-25 05:33N 33°43' W 118°16'0 0.0
2014-Sep-25 04:33N 33°43' W 118°16'0 0.0
2014-Sep-25 03:33N 33°43' W 118°16'0 0.0
2014-Sep-25 02:33N 33°43' W 118°16'0 0.0
2014-Sep-25 01:34N 33°43' W 118°16'1 0.6
2014-Sep-25 00:33N 33°44' W 118°16'1 0.6
2014-Sep-24 23:33N 33°43' W 118°16'3 2.8
2014-Sep-24 22:34N 33°41' W 118°15'3 2.8
2014-Sep-24 21:33N 33°43' W 118°16'0 0.0
2014-Sep-24 20:33N 33°43' W 118°16'0 0.0
2014-Sep-24 19:33N 33°43' W 118°16'0 0.0
2014-Sep-24 18:33N 33°43' W 118°16'0 0.0
2014-Sep-24 17:33N 33°43' W 118°16'0 0.0
2014-Sep-24 16:33N 33°43' W 118°16'0 0.0
2014-Sep-24 15:33N 33°43' W 118°16'0 0.0
2014-Sep-24 14:33N 33°43' W 118°16'0 0.0
2014-Sep-24 13:33N 33°43' W 118°16'0 0.0
2014-Sep-24 12:33N 33°43' W 118°16'0 0.1
2014-Sep-24 11:33N 33°43' W 118°16'0 0.1
2014-Sep-24 10:34N 33°43' W 118°16'0 0.0
2014-Sep-24 09:33N 33°43' W 118°16'0 0.0
2014-Sep-24 08:33N 33°43' W 118°16'0 0.0
2014-Sep-24 07:34N 33°43' W 118°16'0 0.0
2014-Sep-24 06:34N 33°43' W 118°16'0 0.0
2014-Sep-24 05:34N 33°43' W 118°16'0 0.0
2014-Sep-24 04:34N 33°43' W 118°16'0 0.0
2014-Sep-24 03:33N 33°43' W 118°16'0 0.0
2014-Sep-24 02:33N 33°43' W 118°16'0 0.0
2014-Sep-24 01:33N 33°43' W 118°16'0 0.0
2014-Sep-24 00:33N 33°43' W 118°16'0 0.0
2014-Sep-23 23:33N 33°43' W 118°16'0 0.0
2014-Sep-23 22:34N 33°43' W 118°16'0 0.0
2014-Sep-23 21:33N 33°43' W 118°16'0 0.0
2014-Sep-23 20:34N 33°43' W 118°16'0 0.0
2014-Sep-23 19:34N 33°43' W 118°16'0 0.0
2014-Sep-23 18:33N 33°43' W 118°16'0 0.0
2014-Sep-23 17:29N 33°43' W 118°16'0 0.0
2014-Sep-23 16:33N 33°43' W 118°16'0 0.0
2014-Sep-23 15:34N 33°43' W 118°16'0 0.0
2014-Sep-23 14:33N 33°43' W 118°16'0 0.0
2014-Sep-23 13:34N 33°43' W 118°16'4 3.4
2014-Sep-23 12:23N 33°40' W 118°13'4 4.8
2014-Sep-23 11:33N 33°43' W 118°16'0 0.0
2014-Sep-23 10:33N 33°43' W 118°16'0 0.0
2014-Sep-23 09:28N 33°43' W 118°16'0 0.0
2014-Sep-23 08:33N 33°43' W 118°16'0 0.0
2014-Sep-23 07:30N 33°43' W 118°16'0 0.0
2014-Sep-23 06:33N 33°43' W 118°16'0 0.0
2014-Sep-23 05:33N 33°43' W 118°16'0 0.0
2014-Sep-23 04:33N 33°43' W 118°16'0 0.0
2014-Sep-23 03:33N 33°43' W 118°16'1 1.4
2014-Sep-23 02:33N 33°43' W 118°15'1 1.4
2014-Sep-23 01:33N 33°43' W 118°16'0 0.0
2014-Sep-23 00:33N 33°43' W 118°16'0 0.0
2014-Sep-22 23:33N 33°43' W 118°16'0 0.0
2014-Sep-22 22:33N 33°43' W 118°16'0 0.0
2014-Sep-22 21:33N 33°43' W 118°16'1 0.5
2014-Sep-22 20:29N 33°44' W 118°17'1 0.5
2014-Sep-22 19:25N 33°43' W 118°16'0 0.0
2014-Sep-22 18:31N 33°43' W 118°16'0 0.0
2014-Sep-22 17:29N 33°43' W 118°16'  
Track history (hours):
 
Tides and Currents Weather Stations Pressure Air Temp Water Temp Dewpoint Dewpoint Depression Visibility Wind Speed Wind Dir Waves Ship Positions

Stephen M. White

Owner: LOS ANGELES, CITY OF, SAN PEDRO, CA. More information available from US FCC via Universal Licensing System and Coast Guard Vessel Documentation Center.

Last reported at 2014-Oct-02 16:33 UTC. Time now 2014-Oct-02 16:43 UTC.
Position N 33°43' W 118°16'.

Length 20 m.

Type: Pilot. MMSI: 367049470.

Date/timePositionNaut miles runAvg speedWind from/ knotsBaromVisibWave heightAir tempDewpointWater temp
2014-Oct-02 16:33N 33°43' W 118°16'0 0.0
2014-Oct-02 15:33N 33°43' W 118°16'0 0.0
2014-Oct-02 14:33N 33°43' W 118°16'0 0.0
2014-Oct-02 13:33N 33°43' W 118°16'0 0.0
2014-Oct-02 12:33N 33°43' W 118°16'2 1.8
2014-Oct-02 11:33N 33°42' W 118°15'2 1.8
2014-Oct-02 10:33N 33°43' W 118°16'0 0.0
2014-Oct-02 09:33N 33°43' W 118°16'0 0.0
2014-Oct-02 08:31N 33°43' W 118°16'0 0.0
2014-Oct-02 07:33N 33°43' W 118°16'0 0.0
2014-Oct-02 06:33N 33°43' W 118°16'0 0.1
2014-Oct-02 05:33N 33°43' W 118°16'0 0.1
2014-Oct-02 04:33N 33°43' W 118°16'0 0.1
2014-Oct-02 03:33N 33°43' W 118°16'0 0.0
2014-Oct-02 02:33N 33°43' W 118°16'0 0.0
2014-Oct-02 01:33N 33°43' W 118°16'0 0.0
2014-Oct-02 00:33N 33°43' W 118°16'0 0.0
2014-Oct-01 23:33N 33°43' W 118°16'0 0.0
2014-Oct-01 22:33N 33°43' W 118°16'0 0.0
2014-Oct-01 21:33N 33°43' W 118°16'0 0.0
2014-Oct-01 20:33N 33°43' W 118°16'0 0.0
2014-Oct-01 19:33N 33°43' W 118°16'0 0.0
2014-Oct-01 16:12N 33°43' W 118°16'0 0.0
2014-Oct-01 15:33N 33°43' W 118°16'0 0.0
2014-Oct-01 14:32N 33°43' W 118°16'2 1.3
2014-Oct-01 13:20N 33°42' W 118°15'2 1.9
2014-Oct-01 12:32N 33°43' W 118°16'0 0.0
2014-Oct-01 11:33N 33°43' W 118°16'0 0.0
2014-Oct-01 10:33N 33°43' W 118°16'0 0.0
2014-Oct-01 09:33N 33°43' W 118°16'0 0.0
2014-Oct-01 08:33N 33°43' W 118°16'0 0.0
2014-Oct-01 07:33N 33°43' W 118°16'0 0.0
2014-Oct-01 06:33N 33°43' W 118°16'0 0.0
2014-Oct-01 05:32N 33°43' W 118°16'0 0.0
2014-Oct-01 04:33N 33°43' W 118°16'0 0.0
2014-Oct-01 03:33N 33°43' W 118°16'1 1.3
2014-Oct-01 02:33N 33°43' W 118°15'1 1.3
2014-Oct-01 01:33N 33°43' W 118°16'0 0.0
2014-Oct-01 00:25N 33°43' W 118°16'5 6.3
2014-Sep-30 23:34N 33°38' W 118°14'5 5.4
2014-Sep-30 22:33N 33°43' W 118°16'0 0.0
2014-Sep-30 21:34N 33°43' W 118°16'0 0.0
2014-Sep-30 20:33N 33°43' W 118°16'0 0.0
2014-Sep-30 19:33N 33°43' W 118°16'0 0.0
2014-Sep-30 18:33N 33°43' W 118°16'0 0.0
2014-Sep-30 17:12N 33°43' W 118°16'0 0.0
2014-Sep-30 16:14N 33°43' W 118°16'0 0.0
2014-Sep-30 14:34N 33°43' W 118°16'0 0.0
2014-Sep-30 13:33N 33°43' W 118°16'0 0.0
2014-Sep-30 12:33N 33°43' W 118°16'0 0.0
2014-Sep-30 11:33N 33°43' W 118°16'0 0.0
2014-Sep-30 10:33N 33°43' W 118°16'0 0.0
2014-Sep-30 09:32N 33°43' W 118°16'0 0.0
2014-Sep-30 08:33N 33°43' W 118°16'0 0.0
2014-Sep-30 07:33N 33°43' W 118°16'0 0.0
2014-Sep-30 06:31N 33°43' W 118°16'0 0.0
2014-Sep-30 05:32N 33°43' W 118°16'0 0.0
2014-Sep-30 04:33N 33°43' W 118°16'0 0.0
2014-Sep-30 03:33N 33°43' W 118°16'0 0.0
2014-Sep-30 02:24N 33°43' W 118°16'0 0.0
2014-Sep-30 01:34N 33°43' W 118°16'0 0.0
2014-Sep-30 00:32N 33°43' W 118°16'0 0.0
2014-Sep-29 23:31N 33°43' W 118°16'0 0.0
2014-Sep-29 22:34N 33°43' W 118°16'1 0.1
2014-Sep-29 12:33N 33°42' W 118°15'0 0.0
2014-Sep-28 13:18N 33°43' W 118°15'1 0.2
2014-Sep-28 10:14N 33°42' W 118°14'2 2.7
2014-Sep-28 09:33N 33°44' W 118°16'1 0.2
2014-Sep-28 03:30N 33°43' W 118°15'1 0.4
2014-Sep-28 01:20N 33°43' W 118°16'0 0.3
2014-Sep-28 00:07N 33°43' W 118°16'0 0.5
2014-Sep-27 23:09N 33°43' W 118°16'0 0.2
2014-Sep-27 22:24N 33°43' W 118°16'0 0.1
2014-Sep-27 17:11N 33°43' W 118°16'0 0.0
2014-Sep-27 01:22N 33°43' W 118°15'1 0.9
2014-Sep-27 00:25N 33°43' W 118°16'0 0.0
2014-Sep-26 23:15N 33°43' W 118°16'0 0.0
2014-Sep-26 22:06N 33°43' W 118°16'1 1.6
2014-Sep-26 21:30N 33°43' W 118°15'1 1.0
2014-Sep-26 20:32N 33°43' W 118°16'0 0.0
2014-Sep-26 19:33N 33°43' W 118°16'0 0.0
2014-Sep-26 18:32N 33°43' W 118°16'0 0.0
2014-Sep-26 16:33N 33°43' W 118°16'3 3.4
2014-Sep-26 15:33N 33°40' W 118°14'3 3.4
2014-Sep-26 14:33N 33°43' W 118°16'0 0.0
2014-Sep-26 12:13N 33°43' W 118°16'0 0.0
2014-Sep-26 11:18N 33°43' W 118°16'0 0.0
2014-Sep-26 10:32N 33°43' W 118°16'0 0.0
2014-Sep-26 09:33N 33°43' W 118°16'0 0.0
2014-Sep-26 08:33N 33°43' W 118°16'0 0.0
2014-Sep-26 07:33N 33°43' W 118°16'0 0.0
2014-Sep-26 06:33N 33°43' W 118°16'0 0.0
2014-Sep-26 05:33N 33°43' W 118°16'2 1.6
2014-Sep-26 04:32N 33°42' W 118°15'2 1.7
2014-Sep-26 03:33N 33°43' W 118°16'0 0.0
2014-Sep-26 02:33N 33°43' W 118°16'0 0.0
2014-Sep-26 01:33N 33°43' W 118°16'1 1.5
2014-Sep-26 00:34N 33°42' W 118°15'1 1.5
2014-Sep-25 23:33N 33°43' W 118°16'1 1.2
2014-Sep-25 22:33N 33°43' W 118°15'1 1.2
2014-Sep-25 21:33N 33°43' W 118°16'0 0.0
2014-Sep-25 20:33N 33°43' W 118°16'1 1.2
2014-Sep-25 19:33N 33°43' W 118°15'1 1.2
2014-Sep-25 18:33N 33°43' W 118°16'0 0.0
2014-Sep-25 17:34N 33°43' W 118°16'0 0.0
2014-Sep-25 16:34N 33°43' W 118°16'0 0.0
2014-Sep-25 15:34N 33°43' W 118°16'0 0.0
2014-Sep-25 14:34N 33°43' W 118°16'0 0.0
2014-Sep-25 13:34N 33°43' W 118°16'0 0.0
2014-Sep-25 12:34N 33°43' W 118°16'3 2.9
2014-Sep-25 11:33N 33°41' W 118°15'3 2.9
2014-Sep-25 10:33N 33°43' W 118°16'0 0.0
2014-Sep-25 09:34N 33°43' W 118°16'1 1.0
2014-Sep-25 08:34N 33°43' W 118°15'1 1.0
2014-Sep-25 07:33N 33°43' W 118°16'0 0.0
2014-Sep-25 06:33N 33°43' W 118°16'0 0.0
2014-Sep-25 05:33N 33°43' W 118°16'0 0.0
2014-Sep-25 04:33N 33°43' W 118°16'0 0.0
2014-Sep-25 03:33N 33°43' W 118°16'0 0.0
2014-Sep-25 02:33N 33°43' W 118°16'0 0.0
2014-Sep-25 01:34N 33°43' W 118°16'1 0.6
2014-Sep-25 00:33N 33°44' W 118°16'1 0.6
2014-Sep-24 23:33N 33°43' W 118°16'3 2.8
2014-Sep-24 22:34N 33°41' W 118°15'3 2.8
2014-Sep-24 21:33N 33°43' W 118°16'0 0.0
2014-Sep-24 20:33N 33°43' W 118°16'0 0.0
2014-Sep-24 19:33N 33°43' W 118°16'0 0.0
2014-Sep-24 18:33N 33°43' W 118°16'0 0.0
2014-Sep-24 17:33N 33°43' W 118°16'0 0.0
2014-Sep-24 16:33N 33°43' W 118°16'0 0.0
2014-Sep-24 15:33N 33°43' W 118°16'0 0.0
2014-Sep-24 14:33N 33°43' W 118°16'0 0.0
2014-Sep-24 13:33N 33°43' W 118°16'0 0.0
2014-Sep-24 12:33N 33°43' W 118°16'0 0.1
2014-Sep-24 11:33N 33°43' W 118°16'0 0.1
2014-Sep-24 10:34N 33°43' W 118°16'0 0.0
2014-Sep-24 09:33N 33°43' W 118°16'0 0.0
2014-Sep-24 08:33N 33°43' W 118°16'0 0.0
2014-Sep-24 07:34N 33°43' W 118°16'0 0.0
2014-Sep-24 06:34N 33°43' W 118°16'0 0.0
2014-Sep-24 05:34N 33°43' W 118°16'0 0.0
2014-Sep-24 04:34N 33°43' W 118°16'0 0.0
2014-Sep-24 03:33N 33°43' W 118°16'0 0.0
2014-Sep-24 02:33N 33°43' W 118°16'0 0.0
2014-Sep-24 01:33N 33°43' W 118°16'0 0.0
2014-Sep-24 00:33N 33°43' W 118°16'0 0.0
2014-Sep-23 23:33N 33°43' W 118°16'0 0.0
2014-Sep-23 22:34N 33°43' W 118°16'0 0.0
2014-Sep-23 21:33N 33°43' W 118°16'0 0.0
2014-Sep-23 20:34N 33°43' W 118°16'0 0.0
2014-Sep-23 19:34N 33°43' W 118°16'0 0.0
2014-Sep-23 18:33N 33°43' W 118°16'0 0.0
2014-Sep-23 17:29N 33°43' W 118°16'0 0.0
2014-Sep-23 16:33N 33°43' W 118°16'0 0.0
2014-Sep-23 15:34N 33°43' W 118°16'0 0.0
2014-Sep-23 14:33N 33°43' W 118°16'0 0.0
2014-Sep-23 13:34N 33°43' W 118°16'4 3.4
2014-Sep-23 12:23N 33°40' W 118°13'4 4.8
2014-Sep-23 11:33N 33°43' W 118°16'0 0.0
2014-Sep-23 10:33N 33°43' W 118°16'0 0.0
2014-Sep-23 09:28N 33°43' W 118°16'0 0.0
2014-Sep-23 08:33N 33°43' W 118°16'0 0.0
2014-Sep-23 07:30N 33°43' W 118°16'0 0.0
2014-Sep-23 06:33N 33°43' W 118°16'0 0.0
2014-Sep-23 05:33N 33°43' W 118°16'0 0.0
2014-Sep-23 04:33N 33°43' W 118°16'0 0.0
2014-Sep-23 03:33N 33°43' W 118°16'1 1.4
2014-Sep-23 02:33N 33°43' W 118°15'1 1.4
2014-Sep-23 01:33N 33°43' W 118°16'0 0.0
2014-Sep-23 00:33N 33°43' W 118°16'0 0.0
2014-Sep-22 23:33N 33°43' W 118°16'0 0.0
2014-Sep-22 22:33N 33°43' W 118°16'0 0.0
2014-Sep-22 21:33N 33°43' W 118°16'1 0.5
2014-Sep-22 20:29N 33°44' W 118°17'1 0.5
2014-Sep-22 19:25N 33°43' W 118°16'0 0.0
2014-Sep-22 18:31N 33°43' W 118°16'0 0.0
2014-Sep-22 17:29N 33°43' W 118°16'  

Dump ship's entire track history